sensor_id;sensor_type;location;lat;lon;timestamp;temperature;humidity
19781;DHT22;10050;55.492;13.506;2023-02-08T00:01:10;-1.40;99.90
19781;DHT22;10050;55.492;13.506;2023-02-08T00:03:37;-1.40;99.90
19781;DHT22;10050;55.492;13.506;2023-02-08T00:06:04;-1.40;99.90
19781;DHT22;10050;55.492;13.506;2023-02-08T00:08:30;-1.50;99.90
19781;DHT22;10050;55.492;13.506;2023-02-08T00:10:56;-1.40;99.90
19781;DHT22;10050;55.492;13.506;2023-02-08T00:13:22;-1.40;99.90
19781;DHT22;10050;55.492;13.506;2023-02-08T00:15:48;-1.40;99.90
19781;DHT22;10050;55.492;13.506;2023-02-08T00:18:16;-1.40;99.90
19781;DHT22;10050;55.492;13.506;2023-02-08T00:20:42;-1.40;99.90
19781;DHT22;10050;55.492;13.506;2023-02-08T00:23:07;-1.50;99.90
19781;DHT22;10050;55.492;13.506;2023-02-08T00:25:33;-1.50;99.90
19781;DHT22;10050;55.492;13.506;2023-02-08T00:27:59;-1.50;99.90
19781;DHT22;10050;55.492;13.506;2023-02-08T00:30:25;-1.60;99.90
19781;DHT22;10050;55.492;13.506;2023-02-08T00:32:51;-1.60;99.90
19781;DHT22;10050;55.492;13.506;2023-02-08T00:35:16;-1.60;99.90
19781;DHT22;10050;55.492;13.506;2023-02-08T00:37:42;-1.70;99.90
19781;DHT22;10050;55.492;13.506;2023-02-08T00:40:08;-1.70;99.90
19781;DHT22;10050;55.492;13.506;2023-02-08T00:42:34;-1.70;99.90
19781;DHT22;10050;55.492;13.506;2023-02-08T00:44:59;-1.70;99.90
19781;DHT22;10050;55.492;13.506;2023-02-08T00:47:25;-1.70;99.90
19781;DHT22;10050;55.492;13.506;2023-02-08T00:49:51;-1.70;99.90
19781;DHT22;10050;55.492;13.506;2023-02-08T00:52:17;-1.70;99.90
19781;DHT22;10050;55.492;13.506;2023-02-08T00:54:43;-1.70;99.90
19781;DHT22;10050;55.492;13.506;2023-02-08T00:57:08;-1.70;99.90
19781;DHT22;10050;55.492;13.506;2023-02-08T00:59:34;-1.70;99.90
19781;DHT22;10050;55.492;13.506;2023-02-08T01:01:59;-1.70;99.90
19781;DHT22;10050;55.492;13.506;2023-02-08T01:04:25;-1.60;99.90
19781;DHT22;10050;55.492;13.506;2023-02-08T01:06:51;-1.60;99.90
19781;DHT22;10050;55.492;13.506;2023-02-08T01:09:17;-1.60;99.90
19781;DHT22;10050;55.492;13.506;2023-02-08T01:11:42;-1.70;99.90
19781;DHT22;10050;55.492;13.506;2023-02-08T01:14:08;-1.70;99.90
19781;DHT22;10050;55.492;13.506;2023-02-08T01:16:34;-1.70;99.90
19781;DHT22;10050;55.492;13.506;2023-02-08T01:19:01;-1.70;99.90
19781;DHT22;10050;55.492;13.506;2023-02-08T01:21:35;-1.70;99.90
19781;DHT22;10050;55.492;13.506;2023-02-08T01:24:01;-1.70;99.90
19781;DHT22;10050;55.492;13.506;2023-02-08T01:26:27;-1.80;99.90
19781;DHT22;10050;55.492;13.506;2023-02-08T01:28:54;-1.80;99.90
19781;DHT22;10050;55.492;13.506;2023-02-08T01:31:23;-1.80;99.90
19781;DHT22;10050;55.492;13.506;2023-02-08T01:33:49;-1.80;99.90
19781;DHT22;10050;55.492;13.506;2023-02-08T01:36:16;-1.90;99.90
19781;DHT22;10050;55.492;13.506;2023-02-08T01:38:43;-1.90;99.90
19781;DHT22;10050;55.492;13.506;2023-02-08T01:41:20;-1.90;99.90
19781;DHT22;10050;55.492;13.506;2023-02-08T01:46:47;-1.90;99.90
19781;DHT22;10050;55.492;13.506;2023-02-08T01:51:51;-1.90;99.90
19781;DHT22;10050;55.492;13.506;2023-02-08T01:54:19;-1.90;99.90
19781;DHT22;10050;55.492;13.506;2023-02-08T01:56:47;-1.90;99.90
19781;DHT22;10050;55.492;13.506;2023-02-08T01:59:22;-1.80;99.90
19781;DHT22;10050;55.492;13.506;2023-02-08T02:01:52;-1.80;99.90
19781;DHT22;10050;55.492;13.506;2023-02-08T02:04:19;-1.80;99.90
19781;DHT22;10050;55.492;13.506;2023-02-08T02:06:50;-1.80;99.90
19781;DHT22;10050;55.492;13.506;2023-02-08T02:12:05;-1.90;99.90
19781;DHT22;10050;55.492;13.506;2023-02-08T02:14:32;-1.90;99.90
19781;DHT22;10050;55.492;13.506;2023-02-08T02:16:59;-1.90;99.90
19781;DHT22;10050;55.492;13.506;2023-02-08T02:38:28;-2.00;99.90
19781;DHT22;10050;55.492;13.506;2023-02-08T02:41:13;-2.00;99.90
19781;DHT22;10050;55.492;13.506;2023-02-08T02:44:04;-2.00;99.90
19781;DHT22;10050;55.492;13.506;2023-02-08T02:46:51;-2.00;99.90
19781;DHT22;10050;55.492;13.506;2023-02-08T02:49:25;-2.10;99.90
19781;DHT22;10050;55.492;13.506;2023-02-08T02:52:16;-2.00;99.90
19781;DHT22;10050;55.492;13.506;2023-02-08T02:54:50;-2.10;99.90
19781;DHT22;10050;55.492;13.506;2023-02-08T02:57:21;-2.10;99.90
19781;DHT22;10050;55.492;13.506;2023-02-08T02:59:49;-2.10;99.90
19781;DHT22;10050;55.492;13.506;2023-02-08T03:02:15;-2.10;99.90
19781;DHT22;10050;55.492;13.506;2023-02-08T03:07:28;-2.10;99.90
19781;DHT22;10050;55.492;13.506;2023-02-08T03:13:12;-2.10;99.90
19781;DHT22;10050;55.492;13.506;2023-02-08T03:24:01;-2.20;99.90
19781;DHT22;10050;55.492;13.506;2023-02-08T03:26:48;-2.20;99.90
19781;DHT22;10050;55.492;13.506;2023-02-08T03:29:41;-2.20;99.90
19781;DHT22;10050;55.492;13.506;2023-02-08T03:32:33;-2.20;99.90
19781;DHT22;10050;55.492;13.506;2023-02-08T03:35:11;-2.20;99.90
19781;DHT22;10050;55.492;13.506;2023-02-08T03:38:09;-2.10;99.90
19781;DHT22;10050;55.492;13.506;2023-02-08T03:40:39;-2.10;99.90
19781;DHT22;10050;55.492;13.506;2023-02-08T03:43:20;-2.10;99.90
19781;DHT22;10050;55.492;13.506;2023-02-08T03:45:56;-2.10;99.90
19781;DHT22;10050;55.492;13.506;2023-02-08T03:48:24;-2.10;99.90
19781;DHT22;10050;55.492;13.506;2023-02-08T03:50:52;-2.00;99.90
19781;DHT22;10050;55.492;13.506;2023-02-08T03:53:21;-2.00;99.90
19781;DHT22;10050;55.492;13.506;2023-02-08T03:55:50;-2.00;99.90
19781;DHT22;10050;55.492;13.506;2023-02-08T04:01:07;-2.00;99.90
19781;DHT22;10050;55.492;13.506;2023-02-08T04:03:37;-2.00;99.90
19781;DHT22;10050;55.492;13.506;2023-02-08T04:06:03;-2.00;99.90
19781;DHT22;10050;55.492;13.506;2023-02-08T04:08:29;-1.90;99.90
19781;DHT22;10050;55.492;13.506;2023-02-08T04:10:55;-2.00;99.90
19781;DHT22;10050;55.492;13.506;2023-02-08T04:13:20;-2.00;99.90
19781;DHT22;10050;55.492;13.506;2023-02-08T04:15:46;-1.90;99.90
19781;DHT22;10050;55.492;13.506;2023-02-08T04:18:12;-1.90;99.90
19781;DHT22;10050;55.492;13.506;2023-02-08T04:20:37;-1.80;99.90
19781;DHT22;10050;55.492;13.506;2023-02-08T04:23:03;-1.80;99.90
19781;DHT22;10050;55.492;13.506;2023-02-08T04:25:28;-1.70;99.90
19781;DHT22;10050;55.492;13.506;2023-02-08T04:27:54;-1.70;99.90
19781;DHT22;10050;55.492;13.506;2023-02-08T04:30:20;-1.70;99.90
19781;DHT22;10050;55.492;13.506;2023-02-08T04:32:45;-1.70;99.90
19781;DHT22;10050;55.492;13.506;2023-02-08T04:35:11;-1.60;99.90
19781;DHT22;10050;55.492;13.506;2023-02-08T04:37:37;-1.60;99.90
19781;DHT22;10050;55.492;13.506;2023-02-08T04:40:02;-1.60;99.90
19781;DHT22;10050;55.492;13.506;2023-02-08T04:42:28;-1.60;99.90
19781;DHT22;10050;55.492;13.506;2023-02-08T04:44:54;-1.50;99.90
19781;DHT22;10050;55.492;13.506;2023-02-08T04:47:20;-1.50;99.90
19781;DHT22;10050;55.492;13.506;2023-02-08T04:49:46;-1.40;99.90
19781;DHT22;10050;55.492;13.506;2023-02-08T04:52:11;-1.40;99.90
19781;DHT22;10050;55.492;13.506;2023-02-08T04:54:37;-1.40;99.90
19781;DHT22;10050;55.492;13.506;2023-02-08T04:57:03;-1.40;99.90
19781;DHT22;10050;55.492;13.506;2023-02-08T04:59:28;-1.40;99.90
19781;DHT22;10050;55.492;13.506;2023-02-08T05:01:54;-1.40;99.90
19781;DHT22;10050;55.492;13.506;2023-02-08T05:04:20;-1.30;99.90
19781;DHT22;10050;55.492;13.506;2023-02-08T05:06:45;-1.30;99.90
19781;DHT22;10050;55.492;13.506;2023-02-08T05:09:11;-1.30;99.90
19781;DHT22;10050;55.492;13.506;2023-02-08T05:11:37;-1.30;99.90
19781;DHT22;10050;55.492;13.506;2023-02-08T05:14:03;-1.30;99.90
19781;DHT22;10050;55.492;13.506;2023-02-08T05:16:29;-1.20;99.90
19781;DHT22;10050;55.492;13.506;2023-02-08T05:18:55;-1.20;99.90
19781;DHT22;10050;55.492;13.506;2023-02-08T05:21:21;-1.20;99.90
19781;DHT22;10050;55.492;13.506;2023-02-08T05:23:51;-1.20;99.90
19781;DHT22;10050;55.492;13.506;2023-02-08T05:26:17;-1.20;99.90
19781;DHT22;10050;55.492;13.506;2023-02-08T05:28:43;-1.10;99.90
19781;DHT22;10050;55.492;13.506;2023-02-08T05:31:14;-1.10;99.90
19781;DHT22;10050;55.492;13.506;2023-02-08T05:33:41;-1.10;99.90
19781;DHT22;10050;55.492;13.506;2023-02-08T05:36:07;-1.10;99.90
19781;DHT22;10050;55.492;13.506;2023-02-08T05:38:33;-1.10;99.90
19781;DHT22;10050;55.492;13.506;2023-02-08T05:40:59;-1.00;99.90
19781;DHT22;10050;55.492;13.506;2023-02-08T05:43:24;-1.00;99.90
19781;DHT22;10050;55.492;13.506;2023-02-08T05:45:50;-1.10;99.90
19781;DHT22;10050;55.492;13.506;2023-02-08T05:48:16;-1.10;99.90
19781;DHT22;10050;55.492;13.506;2023-02-08T05:50:42;-1.10;99.90
19781;DHT22;10050;55.492;13.506;2023-02-08T05:53:08;-1.10;99.90
19781;DHT22;10050;55.492;13.506;2023-02-08T05:55:33;-1.10;99.90
19781;DHT22;10050;55.492;13.506;2023-02-08T05:57:59;-1.10;99.90
19781;DHT22;10050;55.492;13.506;2023-02-08T06:00:25;-1.00;99.90
19781;DHT22;10050;55.492;13.506;2023-02-08T06:02:50;-1.00;99.90
19781;DHT22;10050;55.492;13.506;2023-02-08T06:05:16;-1.00;99.90
19781;DHT22;10050;55.492;13.506;2023-02-08T06:07:42;-1.00;99.90
19781;DHT22;10050;55.492;13.506;2023-02-08T06:10:08;-0.90;99.90
19781;DHT22;10050;55.492;13.506;2023-02-08T06:12:33;-0.90;99.90
19781;DHT22;10050;55.492;13.506;2023-02-08T06:14:59;-0.90;99.90
19781;DHT22;10050;55.492;13.506;2023-02-08T06:17:25;-0.80;99.90
19781;DHT22;10050;55.492;13.506;2023-02-08T06:19:50;-0.80;99.90
19781;DHT22;10050;55.492;13.506;2023-02-08T06:22:16;-0.70;99.90
19781;DHT22;10050;55.492;13.506;2023-02-08T06:24:41;-0.70;99.90
19781;DHT22;10050;55.492;13.506;2023-02-08T06:27:07;-0.70;99.90
19781;DHT22;10050;55.492;13.506;2023-02-08T06:29:33;-0.70;99.90
19781;DHT22;10050;55.492;13.506;2023-02-08T06:31:59;-0.70;99.90
19781;DHT22;10050;55.492;13.506;2023-02-08T06:34:24;-0.60;99.90
19781;DHT22;10050;55.492;13.506;2023-02-08T06:36:50;-0.60;99.90
19781;DHT22;10050;55.492;13.506;2023-02-08T06:39:15;-0.60;99.90
19781;DHT22;10050;55.492;13.506;2023-02-08T06:41:41;-0.60;99.90
19781;DHT22;10050;55.492;13.506;2023-02-08T06:44:07;-0.50;99.90
19781;DHT22;10050;55.492;13.506;2023-02-08T06:46:32;-0.60;99.90
19781;DHT22;10050;55.492;13.506;2023-02-08T06:48:58;-0.50;99.90
19781;DHT22;10050;55.492;13.506;2023-02-08T06:51:25;-0.50;99.90
19781;DHT22;10050;55.492;13.506;2023-02-08T06:53:51;-0.40;99.90
19781;DHT22;10050;55.492;13.506;2023-02-08T06:56:17;-0.40;99.90
19781;DHT22;10050;55.492;13.506;2023-02-08T06:58:42;-0.40;99.90
19781;DHT22;10050;55.492;13.506;2023-02-08T07:01:12;-0.30;99.90
19781;DHT22;10050;55.492;13.506;2023-02-08T07:03:38;-0.20;99.90
19781;DHT22;10050;55.492;13.506;2023-02-08T07:06:04;-0.10;99.90
19781;DHT22;10050;55.492;13.506;2023-02-08T07:08:30;0.10;99.90
19781;DHT22;10050;55.492;13.506;2023-02-08T07:10:55;0.50;99.90
19781;DHT22;10050;55.492;13.506;2023-02-08T07:13:21;0.90;99.90
19781;DHT22;10050;55.492;13.506;2023-02-08T07:15:47;1.30;99.90
19781;DHT22;10050;55.492;13.506;2023-02-08T07:18:12;1.70;99.90
19781;DHT22;10050;55.492;13.506;2023-02-08T07:20:38;2.10;99.90
19781;DHT22;10050;55.492;13.506;2023-02-08T07:23:03;2.00;99.90
19781;DHT22;10050;55.492;13.506;2023-02-08T07:25:29;1.70;99.90
19781;DHT22;10050;55.492;13.506;2023-02-08T07:27:55;1.40;99.90
19781;DHT22;10050;55.492;13.506;2023-02-08T07:30:20;1.20;99.90
19781;DHT22;10050;55.492;13.506;2023-02-08T07:32:46;1.00;99.90
19781;DHT22;10050;55.492;13.506;2023-02-08T07:35:11;0.90;99.90
19781;DHT22;10050;55.492;13.506;2023-02-08T07:37:37;0.80;99.90
19781;DHT22;10050;55.492;13.506;2023-02-08T07:40:03;0.80;99.90
19781;DHT22;10050;55.492;13.506;2023-02-08T07:42:28;0.80;99.90
19781;DHT22;10050;55.492;13.506;2023-02-08T07:44:54;0.80;99.90
19781;DHT22;10050;55.492;13.506;2023-02-08T07:47:20;0.70;99.90
19781;DHT22;10050;55.492;13.506;2023-02-08T07:49:45;0.80;99.90
19781;DHT22;10050;55.492;13.506;2023-02-08T07:52:11;0.80;99.90
19781;DHT22;10050;55.492;13.506;2023-02-08T07:54:36;0.80;99.90
19781;DHT22;10050;55.492;13.506;2023-02-08T07:57:02;0.80;99.90
19781;DHT22;10050;55.492;13.506;2023-02-08T07:59:28;0.80;99.90
19781;DHT22;10050;55.492;13.506;2023-02-08T08:01:53;0.90;99.90
19781;DHT22;10050;55.492;13.506;2023-02-08T08:04:19;0.90;99.90
19781;DHT22;10050;55.492;13.506;2023-02-08T08:06:46;1.00;99.90
19781;DHT22;10050;55.492;13.506;2023-02-08T08:09:11;1.10;99.90
19781;DHT22;10050;55.492;13.506;2023-02-08T08:11:39;1.30;99.90
19781;DHT22;10050;55.492;13.506;2023-02-08T08:14:05;1.50;99.90
19781;DHT22;10050;55.492;13.506;2023-02-08T08:16:30;1.60;99.90
19781;DHT22;10050;55.492;13.506;2023-02-08T08:18:56;1.80;99.90
19781;DHT22;10050;55.492;13.506;2023-02-08T08:21:22;2.40;99.90
19781;DHT22;10050;55.492;13.506;2023-02-08T08:23:47;3.30;99.90
19781;DHT22;10050;55.492;13.506;2023-02-08T08:26:18;4.50;99.90
19781;DHT22;10050;55.492;13.506;2023-02-08T08:28:44;5.20;99.90
19781;DHT22;10050;55.492;13.506;2023-02-08T08:31:16;5.10;99.90
19781;DHT22;10050;55.492;13.506;2023-02-08T08:33:43;4.70;99.90
19781;DHT22;10050;55.492;13.506;2023-02-08T08:36:09;4.40;99.90
19781;DHT22;10050;55.492;13.506;2023-02-08T08:38:35;4.00;99.90
19781;DHT22;10050;55.492;13.506;2023-02-08T08:41:07;3.70;99.90
19781;DHT22;10050;55.492;13.506;2023-02-08T08:43:32;3.50;99.90
19781;DHT22;10050;55.492;13.506;2023-02-08T08:45:58;3.20;99.90
19781;DHT22;10050;55.492;13.506;2023-02-08T08:48:23;3.10;99.90
19781;DHT22;10050;55.492;13.506;2023-02-08T08:50:49;2.90;99.90
19781;DHT22;10050;55.492;13.506;2023-02-08T08:53:15;2.70;99.90
19781;DHT22;10050;55.492;13.506;2023-02-08T08:55:41;2.70;99.90
19781;DHT22;10050;55.492;13.506;2023-02-08T08:58:06;2.60;99.90
19781;DHT22;10050;55.492;13.506;2023-02-08T09:00:32;2.80;99.90
19781;DHT22;10050;55.492;13.506;2023-02-08T09:02:57;3.30;99.90
19781;DHT22;10050;55.492;13.506;2023-02-08T09:05:23;5.00;99.90
19781;DHT22;10050;55.492;13.506;2023-02-08T09:07:49;7.70;99.90
19781;DHT22;10050;55.492;13.506;2023-02-08T09:10:14;9.70;99.90
19781;DHT22;10050;55.492;13.506;2023-02-08T09:12:40;10.90;99.90
19781;DHT22;10050;55.492;13.506;2023-02-08T09:15:06;11.80;99.90
19781;DHT22;10050;55.492;13.506;2023-02-08T09:17:31;11.50;99.90
19781;DHT22;10050;55.492;13.506;2023-02-08T09:19:57;10.60;99.90
19781;DHT22;10050;55.492;13.506;2023-02-08T09:22:23;10.60;99.90
19781;DHT22;10050;55.492;13.506;2023-02-08T09:24:51;11.40;99.90
19781;DHT22;10050;55.492;13.506;2023-02-08T09:27:16;12.80;99.90
19781;DHT22;10050;55.492;13.506;2023-02-08T09:29:43;13.90;99.90
19781;DHT22;10050;55.492;13.506;2023-02-08T09:32:09;14.60;99.90
19781;DHT22;10050;55.492;13.506;2023-02-08T09:34:34;14.80;99.90
19781;DHT22;10050;55.492;13.506;2023-02-08T09:37:00;15.00;99.90
19781;DHT22;10050;55.492;13.506;2023-02-08T09:39:25;15.50;99.90
19781;DHT22;10050;55.492;13.506;2023-02-08T09:58:01;13.20;99.90
19781;DHT22;10050;55.492;13.506;2023-02-08T10:00:39;13.30;99.90
19781;DHT22;10050;55.492;13.506;2023-02-08T10:03:50;13.20;99.90
19781;DHT22;10050;55.492;13.506;2023-02-08T10:05:57;13.00;99.90
19781;DHT22;10050;55.492;13.506;2023-02-08T10:08:22;13.10;99.90
19781;DHT22;10050;55.492;13.506;2023-02-08T10:10:58;12.50;99.90
19781;DHT22;10050;55.492;13.506;2023-02-08T10:22:33;12.20;99.90
19781;DHT22;10050;55.492;13.506;2023-02-08T10:25:30;12.30;99.90
19781;DHT22;10050;55.492;13.506;2023-02-08T10:33:46;12.00;99.90
19781;DHT22;10050;55.492;13.506;2023-02-08T10:36:18;11.80;99.90
19781;DHT22;10050;55.492;13.506;2023-02-08T10:38:47;11.90;99.90
19781;DHT22;10050;55.492;13.506;2023-02-08T10:41:23;11.80;99.90
19781;DHT22;10050;55.492;13.506;2023-02-08T10:47:19;11.60;99.90
19781;DHT22;10050;55.492;13.506;2023-02-08T10:53:00;11.20;99.90
19781;DHT22;10050;55.492;13.506;2023-02-08T10:55:26;11.30;99.90
19781;DHT22;10050;55.492;13.506;2023-02-08T10:57:56;11.00;99.90
19781;DHT22;10050;55.492;13.506;2023-02-08T11:00:29;10.60;99.90
19781;DHT22;10050;55.492;13.506;2023-02-08T11:02:57;10.50;99.90
19781;DHT22;10050;55.492;13.506;2023-02-08T11:08:18;10.30;99.90
19781;DHT22;10050;55.492;13.506;2023-02-08T11:11:06;9.90;99.90
19781;DHT22;10050;55.492;13.506;2023-02-08T11:13:40;9.70;99.90
19781;DHT22;10050;55.492;13.506;2023-02-08T11:16:10;9.60;99.90
19781;DHT22;10050;55.492;13.506;2023-02-08T11:18:50;9.90;99.90
19781;DHT22;10050;55.492;13.506;2023-02-08T11:21:29;9.90;99.90
19781;DHT22;10050;55.492;13.506;2023-02-08T11:24:00;9.40;99.90
19781;DHT22;10050;55.492;13.506;2023-02-08T11:31:24;9.00;99.90
19781;DHT22;10050;55.492;13.506;2023-02-08T11:34:01;9.00;99.90
19781;DHT22;10050;55.492;13.506;2023-02-08T11:36:28;8.80;99.90
19781;DHT22;10050;55.492;13.506;2023-02-08T11:38:54;8.70;99.90
19781;DHT22;10050;55.492;13.506;2023-02-08T11:41:20;8.80;99.90
19781;DHT22;10050;55.492;13.506;2023-02-08T11:43:58;8.70;99.90
19781;DHT22;10050;55.492;13.506;2023-02-08T11:46:27;8.50;99.90
19781;DHT22;10050;55.492;13.506;2023-02-08T11:48:54;8.20;99.90
19781;DHT22;10050;55.492;13.506;2023-02-08T11:51:32;8.10;99.90
19781;DHT22;10050;55.492;13.506;2023-02-08T11:54:03;8.10;99.90
19781;DHT22;10050;55.492;13.506;2023-02-08T11:56:30;7.90;99.90
19781;DHT22;10050;55.492;13.506;2023-02-08T11:59:00;7.70;99.90
19781;DHT22;10050;55.492;13.506;2023-02-08T12:01:40;7.40;99.90
19781;DHT22;10050;55.492;13.506;2023-02-08T12:04:09;7.20;99.90
19781;DHT22;10050;55.492;13.506;2023-02-08T12:09:46;6.90;99.90
19781;DHT22;10050;55.492;13.506;2023-02-08T12:15:40;6.70;99.90
19781;DHT22;10050;55.492;13.506;2023-02-08T12:18:25;6.50;99.90
19781;DHT22;10050;55.492;13.506;2023-02-08T12:23:42;6.30;99.90
19781;DHT22;10050;55.492;13.506;2023-02-08T12:26:20;6.40;99.90
19781;DHT22;10050;55.492;13.506;2023-02-08T12:28:57;6.40;99.90
19781;DHT22;10050;55.492;13.506;2023-02-08T12:34:54;6.40;99.90
19781;DHT22;10050;55.492;13.506;2023-02-08T12:40:37;6.30;99.90
19781;DHT22;10050;55.492;13.506;2023-02-08T12:48:39;6.30;99.90
19781;DHT22;10050;55.492;13.506;2023-02-08T12:53:38;6.40;99.90
19781;DHT22;10050;55.492;13.506;2023-02-08T12:56:14;6.20;99.90
19781;DHT22;10050;55.492;13.506;2023-02-08T12:58:47;6.10;99.90
19781;DHT22;10050;55.492;13.506;2023-02-08T13:01:28;6.10;99.90
19781;DHT22;10050;55.492;13.506;2023-02-08T13:04:06;6.20;99.90
19781;DHT22;10050;55.492;13.506;2023-02-08T13:06:39;6.10;99.90
19781;DHT22;10050;55.492;13.506;2023-02-08T13:12:03;5.80;99.90
19781;DHT22;10050;55.492;13.506;2023-02-08T13:17:44;5.60;99.90
19781;DHT22;10050;55.492;13.506;2023-02-08T13:23:02;5.50;99.90
19781;DHT22;10050;55.492;13.506;2023-02-08T13:25:33;5.70;99.90
19781;DHT22;10050;55.492;13.506;2023-02-08T13:28:05;5.70;99.90
19781;DHT22;10050;55.492;13.506;2023-02-08T13:30:32;5.60;99.90
19781;DHT22;10050;55.492;13.506;2023-02-08T13:33:04;5.50;99.90
19781;DHT22;10050;55.492;13.506;2023-02-08T13:35:34;5.30;99.90
19781;DHT22;10050;55.492;13.506;2023-02-08T13:38:31;5.10;99.90
19781;DHT22;10050;55.492;13.506;2023-02-08T13:41:16;5.00;99.90
19781;DHT22;10050;55.492;13.506;2023-02-08T13:46:16;5.10;99.90
19781;DHT22;10050;55.492;13.506;2023-02-08T13:48:49;5.10;99.90
19781;DHT22;10050;55.492;13.506;2023-02-08T13:56:41;5.20;99.90
19781;DHT22;10050;55.492;13.506;2023-02-08T14:05:45;4.80;99.90
19781;DHT22;10050;55.492;13.506;2023-02-08T14:07:46;4.80;99.90
19781;DHT22;10050;55.492;13.506;2023-02-08T14:15:42;4.80;99.90
19781;DHT22;10050;55.492;13.506;2023-02-08T14:18:24;4.80;99.90
19781;DHT22;10050;55.492;13.506;2023-02-08T14:21:05;4.70;99.90
19781;DHT22;10050;55.492;13.506;2023-02-08T14:23:35;4.50;99.90
19781;DHT22;10050;55.492;13.506;2023-02-08T14:26:17;4.40;99.90
19781;DHT22;10050;55.492;13.506;2023-02-08T14:28:53;4.40;99.90
19781;DHT22;10050;55.492;13.506;2023-02-08T14:31:20;4.30;99.90
19781;DHT22;10050;55.492;13.506;2023-02-08T14:33:53;4.20;99.90
19781;DHT22;10050;55.492;13.506;2023-02-08T14:36:33;4.10;99.90
19781;DHT22;10050;55.492;13.506;2023-02-08T14:42:09;4.10;99.90
19781;DHT22;10050;55.492;13.506;2023-02-08T14:49:43;4.00;99.90
19781;DHT22;10050;55.492;13.506;2023-02-08T14:52:31;4.00;99.90
19781;DHT22;10050;55.492;13.506;2023-02-08T14:55:14;3.90;99.90
19781;DHT22;10050;55.492;13.506;2023-02-08T14:57:42;3.80;99.90
19781;DHT22;10050;55.492;13.506;2023-02-08T15:00:32;3.80;99.90
19781;DHT22;10050;55.492;13.506;2023-02-08T15:02:59;3.70;99.90
19781;DHT22;10050;55.492;13.506;2023-02-08T15:05:28;3.60;99.90
19781;DHT22;10050;55.492;13.506;2023-02-08T15:07:58;3.60;99.90
19781;DHT22;10050;55.492;13.506;2023-02-08T15:10:28;3.50;99.90
19781;DHT22;10050;55.492;13.506;2023-02-08T15:13:00;3.40;99.90
19781;DHT22;10050;55.492;13.506;2023-02-08T15:15:35;3.40;99.90
19781;DHT22;10050;55.492;13.506;2023-02-08T15:18:03;3.40;99.90
19781;DHT22;10050;55.492;13.506;2023-02-08T15:20:31;3.30;99.90
19781;DHT22;10050;55.492;13.506;2023-02-08T15:23:03;3.30;99.90
19781;DHT22;10050;55.492;13.506;2023-02-08T15:25:33;3.20;99.90
19781;DHT22;10050;55.492;13.506;2023-02-08T15:28:02;3.20;99.90
19781;DHT22;10050;55.492;13.506;2023-02-08T15:30:37;3.10;99.90
19781;DHT22;10050;55.492;13.506;2023-02-08T15:33:09;2.90;99.90
19781;DHT22;10050;55.492;13.506;2023-02-08T15:35:39;2.90;99.90
19781;DHT22;10050;55.492;13.506;2023-02-08T15:38:14;2.80;99.90
19781;DHT22;10050;55.492;13.506;2023-02-08T15:40:41;2.90;99.90
19781;DHT22;10050;55.492;13.506;2023-02-08T15:45:32;2.80;99.90
19781;DHT22;10050;55.492;13.506;2023-02-08T15:47:59;2.70;99.90
19781;DHT22;10050;55.492;13.506;2023-02-08T15:50:26;2.80;99.90
19781;DHT22;10050;55.492;13.506;2023-02-08T15:53:01;2.70;99.90
19781;DHT22;10050;55.492;13.506;2023-02-08T15:55:34;2.60;99.90
19781;DHT22;10050;55.492;13.506;2023-02-08T15:58:06;2.50;99.90
19781;DHT22;10050;55.492;13.506;2023-02-08T16:00:36;2.40;99.90
19781;DHT22;10050;55.492;13.506;2023-02-08T16:03:15;2.30;99.90
19781;DHT22;10050;55.492;13.506;2023-02-08T16:05:54;2.30;99.90
19781;DHT22;10050;55.492;13.506;2023-02-08T16:08:24;2.30;99.90
19781;DHT22;10050;55.492;13.506;2023-02-08T16:11:03;2.30;99.90
19781;DHT22;10050;55.492;13.506;2023-02-08T16:13:34;2.30;99.90
19781;DHT22;10050;55.492;13.506;2023-02-08T16:18:57;2.10;99.90
19781;DHT22;10050;55.492;13.506;2023-02-08T16:29:31;2.00;99.90
19781;DHT22;10050;55.492;13.506;2023-02-08T16:34:26;1.90;99.90
19781;DHT22;10050;55.492;13.506;2023-02-08T16:36:56;2.00;99.90
19781;DHT22;10050;55.492;13.506;2023-02-08T16:39:54;2.00;99.90
19781;DHT22;10050;55.492;13.506;2023-02-08T16:42:25;1.90;99.90
19781;DHT22;10050;55.492;13.506;2023-02-08T16:45:18;1.90;99.90
19781;DHT22;10050;55.492;13.506;2023-02-08T16:50:15;1.90;99.90
19781;DHT22;10050;55.492;13.506;2023-02-08T16:52:42;1.90;99.90
19781;DHT22;10050;55.492;13.506;2023-02-08T16:55:15;1.80;99.90
19781;DHT22;10050;55.492;13.506;2023-02-08T16:57:44;1.80;99.90
19781;DHT22;10050;55.492;13.506;2023-02-08T17:00:16;1.80;99.90
19781;DHT22;10050;55.492;13.506;2023-02-08T17:02:42;1.80;99.90
19781;DHT22;10050;55.492;13.506;2023-02-08T17:05:08;1.80;99.90
19781;DHT22;10050;55.492;13.506;2023-02-08T17:07:33;1.80;99.90
19781;DHT22;10050;55.492;13.506;2023-02-08T17:10:01;1.80;99.90
19781;DHT22;10050;55.492;13.506;2023-02-08T17:12:27;1.80;99.90
19781;DHT22;10050;55.492;13.506;2023-02-08T17:14:52;1.80;99.90
19781;DHT22;10050;55.492;13.506;2023-02-08T17:17:18;1.80;99.90
19781;DHT22;10050;55.492;13.506;2023-02-08T17:19:44;1.70;99.90
19781;DHT22;10050;55.492;13.506;2023-02-08T17:22:11;1.70;99.90
19781;DHT22;10050;55.492;13.506;2023-02-08T17:24:37;1.70;99.90
19781;DHT22;10050;55.492;13.506;2023-02-08T17:27:02;1.80;99.90
19781;DHT22;10050;55.492;13.506;2023-02-08T17:29:28;1.80;99.90
19781;DHT22;10050;55.492;13.506;2023-02-08T17:31:54;1.80;99.90
19781;DHT22;10050;55.492;13.506;2023-02-08T17:34:19;1.80;99.90
19781;DHT22;10050;55.492;13.506;2023-02-08T17:36:45;1.80;99.90
19781;DHT22;10050;55.492;13.506;2023-02-08T17:39:11;1.70;99.90
19781;DHT22;10050;55.492;13.506;2023-02-08T17:41:38;1.70;99.90
19781;DHT22;10050;55.492;13.506;2023-02-08T17:44:04;1.70;99.90
19781;DHT22;10050;55.492;13.506;2023-02-08T17:46:30;1.70;99.90
19781;DHT22;10050;55.492;13.506;2023-02-08T17:48:56;1.70;99.90
19781;DHT22;10050;55.492;13.506;2023-02-08T17:51:26;1.60;99.90
19781;DHT22;10050;55.492;13.506;2023-02-08T17:53:52;1.60;99.90
19781;DHT22;10050;55.492;13.506;2023-02-08T17:56:19;1.60;99.90
19781;DHT22;10050;55.492;13.506;2023-02-08T17:58:45;1.60;99.90
19781;DHT22;10050;55.492;13.506;2023-02-08T18:01:20;1.60;99.90
19781;DHT22;10050;55.492;13.506;2023-02-08T18:03:48;1.60;99.90
19781;DHT22;10050;55.492;13.506;2023-02-08T18:06:15;1.60;99.90
19781;DHT22;10050;55.492;13.506;2023-02-08T18:08:40;1.60;99.90
19781;DHT22;10050;55.492;13.506;2023-02-08T18:11:09;1.60;99.90
19781;DHT22;10050;55.492;13.506;2023-02-08T18:13:36;1.60;99.90
19781;DHT22;10050;55.492;13.506;2023-02-08T18:16:13;1.60;99.90
19781;DHT22;10050;55.492;13.506;2023-02-08T18:18:39;1.60;99.90
19781;DHT22;10050;55.492;13.506;2023-02-08T18:21:12;1.70;99.90
19781;DHT22;10050;55.492;13.506;2023-02-08T18:23:39;1.70;99.90